Savannah — WSW6620 — position and weather

sailwx.info

Track history (hours):
 
Tides and Currents Weather Stations Pressure Air Temp Water Temp Dewpoint Dewpoint Depression Visibility Wind Speed Wind Dir Waves Ship Positions

Savannah

Owner: SAVANNAH BAR PILOTS INC, SAVANNAH, GA. More information available from US FCC via Universal Licensing System and Coast Guard Vessel Documentation Center.

Last reported at 2018-Apr-20 13:58 UTC. Time now 2018-Apr-20 14:16 UTC.
Position N 32°02' W 080°54'.

Length 18 m; draft 1.5 m.

Type: Pilot. MMSI: 367061140.

Date/timePositionNaut miles runAvg speedWind from/ knotsBaromVisibWave heightAir tempDewpointWater temp
2018-Apr-20 13:58N 32°02' W 080°54'0 0.0
2018-Apr-20 13:30N 32°02' W 080°54'0 0.0
2018-Apr-20 13:00N 32°02' W 080°54'0 0.0
2018-Apr-20 12:28N 32°02' W 080°54'0 0.0
2018-Apr-20 12:00N 32°02' W 080°54'0 0.0
2018-Apr-20 11:30N 32°02' W 080°54'611.8
2018-Apr-20 11:00N 32°00' W 080°48'5 9.5
2018-Apr-20 10:29N 31°58' W 080°43'715.4
2018-Apr-20 10:00N 32°02' W 080°50'3 6.2
2018-Apr-20 09:30N 31°60' W 080°47'1 1.5
2018-Apr-20 08:54N 31°59' W 080°46'717.6
2018-Apr-20 08:30N 32°02' W 080°54'1 1.9
2018-Apr-20 08:00N 32°02' W 080°53'10 8.3
2018-Apr-20 06:48N 31°57' W 080°43'1 3.4
2018-Apr-20 06:30N 31°57' W 080°42'612.7
2018-Apr-20 06:01N 32°00' W 080°48'4 7.9
2018-Apr-20 05:30N 32°02' W 080°52'1119.1
2018-Apr-20 04:55N 31°56' W 080°40'0 0.2
2018-Apr-20 04:30N 31°56' W 080°40'2 3.8
2018-Apr-20 04:01N 31°58' W 080°42'1 1.6
2018-Apr-20 03:22N 31°57' W 080°41'1 2.0
2018-Apr-20 02:40N 31°58' W 080°42'211.6
2018-Apr-20 02:30N 31°58' W 080°44'917.1
2018-Apr-20 02:00N 32°02' W 080°54'916.2
2018-Apr-20 01:25N 31°58' W 080°44'2 5.0
2018-Apr-20 01:00N 31°59' W 080°46'1 1.6
2018-Apr-20 00:30N 31°59' W 080°45'5 8.2
2018-Apr-19 23:55N 31°56' W 080°40'614.4
2018-Apr-19 23:30N 31°59' W 080°46'714.9
2018-Apr-19 23:00N 32°02' W 080°54'0 0.0
2018-Apr-19 22:30N 32°02' W 080°54'0 0.0
2018-Apr-19 22:00N 32°02' W 080°54'0 0.0
2018-Apr-19 21:30N 32°02' W 080°54'0 0.0
2018-Apr-19 20:57N 32°02' W 080°54'0 0.0
2018-Apr-19 20:29N 32°02' W 080°54'0 0.0
2018-Apr-19 20:00N 32°02' W 080°54'0 0.0
2018-Apr-19 19:30N 32°02' W 080°54'918.7
2018-Apr-19 19:00N 31°58' W 080°44'1 2.6
2018-Apr-19 18:30N 31°59' W 080°45'0 0.5
2018-Apr-19 18:00N 31°59' W 080°45'4 7.3
2018-Apr-19 17:27N 31°57' W 080°41'3 6.9
2018-Apr-19 16:58N 31°58' W 080°44'2 3.7
2018-Apr-19 16:28N 32°00' W 080°45'2 4.6
2018-Apr-19 16:00N 31°58' W 080°46'2 4.7
2018-Apr-19 15:30N 32°00' W 080°45'1 2.1
2018-Apr-19 15:00N 31°59' W 080°44'2 3.9
2018-Apr-19 14:30N 31°59' W 080°47'612.9
2018-Apr-19 14:01N 32°02' W 080°53'1 1.2
2018-Apr-19 13:30N 32°02' W 080°54'0 0.0
2018-Apr-19 13:00N 32°02' W 080°54'3 5.1
2018-Apr-19 12:31N 32°02' W 080°51'910.6
2018-Apr-19 11:39N 31°58' W 080°42'319.6
2018-Apr-19 11:30N 31°59' W 080°45'714.2
2018-Apr-19 11:00N 32°02' W 080°52'1 2.9
2018-Apr-19 10:30N 32°02' W 080°54'0 0.0
2018-Apr-19 10:00N 32°02' W 080°54'0 0.0
2018-Apr-19 09:30N 32°02' W 080°54'0 0.0
2018-Apr-19 09:00N 32°02' W 080°54'0 0.0
2018-Apr-19 08:30N 32°02' W 080°54'2 4.2
2018-Apr-19 08:00N 32°02' W 080°52'911.1
2018-Apr-19 07:13N 31°58' W 080°43'417.3
2018-Apr-19 07:00N 31°60' W 080°47'613.4
2018-Apr-19 06:31N 32°02' W 080°54'0 0.0
2018-Apr-19 06:01N 32°02' W 080°54'0 0.0
2018-Apr-19 05:31N 32°02' W 080°54'0 0.0
2018-Apr-19 05:00N 32°02' W 080°54'0 0.0
2018-Apr-19 04:30N 32°02' W 080°54'0 0.0
2018-Apr-19 04:00N 32°02' W 080°54'0 0.0
2018-Apr-19 03:30N 32°02' W 080°54'0 0.0
2018-Apr-19 03:01N 32°02' W 080°54'714.3
2018-Apr-19 02:30N 31°59' W 080°46'2 3.6
2018-Apr-19 02:00N 32°01' W 080°48'611.1
2018-Apr-19 01:30N 32°02' W 080°54'0 0.0
2018-Apr-19 01:00N 32°02' W 080°54'0 0.0
2018-Apr-19 00:29N 32°02' W 080°54'0 0.0
2018-Apr-19 00:00N 32°02' W 080°54'0 0.0
2018-Apr-18 23:29N 32°02' W 080°54'0 0.0
2018-Apr-18 23:00N 32°02' W 080°54'0 0.0
2018-Apr-18 22:29N 32°02' W 080°54'0 0.0
2018-Apr-18 22:00N 32°02' W 080°54'0 0.0
2018-Apr-18 21:29N 32°02' W 080°54'0 0.0
2018-Apr-18 21:00N 32°02' W 080°54'0 0.0
2018-Apr-18 20:30N 32°02' W 080°54'0 0.0
2018-Apr-18 20:00N 32°02' W 080°54'0 0.0
2018-Apr-18 19:30N 32°02' W 080°54'0 0.0
2018-Apr-18 19:00N 32°02' W 080°54'0 0.0
2018-Apr-18 18:29N 32°02' W 080°54'0 0.0
2018-Apr-18 18:00N 32°02' W 080°54'0 0.0
2018-Apr-18 17:30N 32°02' W 080°54'0 0.0
2018-Apr-18 17:00N 32°02' W 080°54'0 0.0
2018-Apr-18 16:30N 32°02' W 080°54'0 0.0
2018-Apr-18 16:00N 32°02' W 080°54'0 0.0
2018-Apr-18 15:30N 32°02' W 080°54'0 0.0
2018-Apr-18 15:00N 32°02' W 080°54'0 0.0
2018-Apr-18 14:30N 32°02' W 080°54'0 0.0
2018-Apr-18 14:00N 32°02' W 080°54'0 0.0
2018-Apr-18 13:30N 32°02' W 080°54'0 0.0
2018-Apr-18 13:00N 32°02' W 080°54'510.5
2018-Apr-18 12:30N 32°01' W 080°48'712.8
2018-Apr-18 11:59N 31°58' W 080°41'713.8
2018-Apr-18 11:30N 32°01' W 080°48'510.0
2018-Apr-18 11:00N 32°02' W 080°54'0 0.0
2018-Apr-18 10:31N 32°02' W 080°54'0 0.0
2018-Apr-18 10:00N 32°02' W 080°54'0 0.0
2018-Apr-18 09:30N 32°02' W 080°54'1220.2
2018-Apr-18 08:55N 31°57' W 080°41'717.5
2018-Apr-18 08:31N 32°01' W 080°48'510.2
2018-Apr-18 08:00N 32°02' W 080°54'2 4.8
2018-Apr-18 07:30N 32°02' W 080°51'1121.4
2018-Apr-18 07:00N 31°57' W 080°40'1 1.0
2018-Apr-18 06:30N 31°57' W 080°40'1 1.2
2018-Apr-18 06:00N 31°57' W 080°40'2 3.6
2018-Apr-18 05:28N 31°58' W 080°43'3 4.7
2018-Apr-18 04:52N 31°57' W 080°40'718.0
2018-Apr-18 04:30N 31°59' W 080°47'0 1.0
2018-Apr-18 04:00N 31°59' W 080°46'611.2
2018-Apr-18 03:30N 32°02' W 080°52'2 4.2
2018-Apr-18 03:00N 32°02' W 080°54'0 0.0
2018-Apr-18 02:28N 32°02' W 080°54'0 0.0
2018-Apr-18 01:58N 32°02' W 080°54'0 0.0
2018-Apr-18 01:30N 32°02' W 080°54'0 0.0
2018-Apr-18 00:56N 32°02' W 080°54'0 0.0
2018-Apr-18 00:29N 32°02' W 080°54'0 0.0
2018-Apr-17 23:56N 32°02' W 080°54'0 0.0
2018-Apr-17 23:30N 32°02' W 080°54'0 0.0
2018-Apr-17 23:00N 32°02' W 080°54'0 0.0
2018-Apr-17 22:30N 32°02' W 080°54'0 0.0
2018-Apr-17 22:00N 32°02' W 080°54'0 0.0
2018-Apr-17 21:30N 32°02' W 080°54'0 0.0
2018-Apr-17 21:00N 32°02' W 080°54'0 0.0
2018-Apr-17 20:30N 32°02' W 080°54'0 0.0
2018-Apr-17 20:00N 32°02' W 080°54'0 0.0
2018-Apr-17 19:30N 32°02' W 080°54'0 0.0
2018-Apr-17 18:57N 32°02' W 080°54'0 0.0
2018-Apr-17 18:30N 32°02' W 080°54'0 0.0
2018-Apr-17 17:59N 32°02' W 080°54'0 0.0
2018-Apr-17 17:30N 32°02' W 080°54'0 0.0
2018-Apr-17 17:00N 32°02' W 080°54'0 0.0
2018-Apr-17 16:30N 32°02' W 080°54'0 0.0
2018-Apr-17 16:00N 32°02' W 080°54'0 0.0
2018-Apr-17 15:30N 32°02' W 080°54'0 0.0
2018-Apr-17 15:00N 32°02' W 080°54'0 0.0
2018-Apr-17 14:26N 32°02' W 080°54'0 0.0
2018-Apr-17 14:00N 32°02' W 080°54'0 0.0
2018-Apr-17 13:29N 32°02' W 080°54'0 0.0
2018-Apr-17 13:00N 32°02' W 080°54'510.3
2018-Apr-17 12:31N 32°01' W 080°48'8 7.6
2018-Apr-17 11:28N 31°57' W 080°40'4 8.6
2018-Apr-17 10:57N 31°58' W 080°45'2 4.6
2018-Apr-17 10:30N 31°59' W 080°47'4 6.1
2018-Apr-17 09:47N 31°58' W 080°43'310.3
2018-Apr-17 09:27N 31°59' W 080°46'612.6
2018-Apr-17 09:00N 32°02' W 080°52'2 4.0
2018-Apr-17 08:30N 32°02' W 080°54'0 0.0
2018-Apr-17 08:00N 32°02' W 080°54'0 0.0
2018-Apr-17 07:27N 32°02' W 080°54'0 0.0
2018-Apr-17 07:00N 32°02' W 080°54'0 0.0
2018-Apr-17 06:30N 32°02' W 080°54'0 0.0
2018-Apr-17 05:58N 32°02' W 080°54'0 0.0
2018-Apr-17 05:28N 32°02' W 080°54'0 0.0
2018-Apr-17 05:00N 32°02' W 080°54'0 0.0
2018-Apr-17 04:30N 32°02' W 080°54'0 0.0
2018-Apr-17 03:57N 32°02' W 080°54'0 0.0
2018-Apr-17 03:30N 32°02' W 080°54'0 0.0
2018-Apr-17 03:00N 32°02' W 080°54'0 0.0
2018-Apr-17 02:30N 32°02' W 080°54'0 0.0
2018-Apr-17 02:00N 32°02' W 080°54'0 0.0
2018-Apr-17 01:30N 32°02' W 080°54'0 0.0
2018-Apr-17 00:59N 32°02' W 080°54'0 0.0
2018-Apr-17 00:30N 32°02' W 080°54'0 0.0
2018-Apr-17 00:00N 32°02' W 080°54'0 0.0
2018-Apr-16 23:30N 32°02' W 080°54'0 0.0
2018-Apr-16 23:00N 32°02' W 080°54'1 1.7
2018-Apr-16 22:31N 32°02' W 080°53'1221.9
2018-Apr-16 21:58N 31°58' W 080°40'4 9.0
2018-Apr-16 21:30N 31°59' W 080°45'917.1
2018-Apr-16 21:00N 32°02' W 080°54'0 0.0
2018-Apr-16 20:30N 32°02' W 080°54'0 0.0
2018-Apr-16 20:00N 32°02' W 080°54'0 0.0
2018-Apr-16 19:29N 32°02' W 080°54'0 0.0
2018-Apr-16 19:00N 32°02' W 080°54'0 0.0
2018-Apr-16 18:30N 32°02' W 080°54'5 9.3
2018-Apr-16 17:59N 32°01' W 080°49'5 7.8
2018-Apr-16 17:20N 31°58' W 080°44'514.8
2018-Apr-16 17:01N 32°01' W 080°48'5 8.8
2018-Apr-16 16:30N 31°58' W 080°44'3 7.0
2018-Apr-16 16:00N 31°60' W 080°47'611.2
2018-Apr-16 15:31N 32°02' W 080°53'916.3
2018-Apr-16 14:59N 31°58' W 080°44'1 1.0
2018-Apr-16 14:23N 31°58' W 080°44'513.5
2018-Apr-16 14:00N 32°01' W 080°48'5 9.7
2018-Apr-16 13:30N 32°02' W 080°54'0 0.0
2018-Apr-16 12:55N 32°02' W 080°54'0 0.0
2018-Apr-16 12:30N 32°02' W 080°54'1315.2
2018-Apr-16 11:40N 31°57' W 080°41'423.1
2018-Apr-16 11:30N 31°59' W 080°45'917.5
2018-Apr-16 11:00N 32°02' W 080°54'1 2.8
2018-Apr-16 10:31N 32°02' W 080°52'1118.8
2018-Apr-16 09:55N 31°58' W 080°41'612.8
2018-Apr-16 09:29N 31°60' W 080°47'511.2
2018-Apr-16 09:00N 32°02' W 080°52'1 3.0
2018-Apr-16 08:30N 32°02' W 080°54'0 0.0
2018-Apr-16 08:00N 32°02' W 080°54'0 0.0
2018-Apr-16 07:30N 32°02' W 080°54'611.6
2018-Apr-16 07:01N 32°00' W 080°48'5 5.2
2018-Apr-16 06:03N 31°57' W 080°43'121.9
2018-Apr-16 06:00N 31°58' W 080°44'1019.6
2018-Apr-16 05:30N 32°02' W 080°54'0 0.0
2018-Apr-16 04:59N 32°02' W 080°54'0 0.0
2018-Apr-16 04:30N 32°02' W 080°54'0 0.0
2018-Apr-16 04:00N 32°02' W 080°54'0 0.0
2018-Apr-16 03:30N 32°02' W 080°54'0 0.0
2018-Apr-16 03:00N 32°02' W 080°54'0 0.0
2018-Apr-16 02:30N 32°02' W 080°54'0 0.0
2018-Apr-16 01:58N 32°02' W 080°54'4 8.9
2018-Apr-16 01:30N 32°02' W 080°49'4 8.3
2018-Apr-16 00:59N 31°59' W 080°46'713.6
2018-Apr-16 00:30N 32°02' W 080°52'9 5.1
2018-Apr-15 22:50N 31°58' W 080°44'514.4
2018-Apr-15 22:29N 32°01' W 080°48'510.6
2018-Apr-15 22:00N 32°02' W 080°54'0 0.0
2018-Apr-15 21:29N 32°02' W 080°54'0 0.0
2018-Apr-15 21:01N 32°02' W 080°54'0 0.0
2018-Apr-15 20:31N 32°02' W 080°54'0 0.0
2018-Apr-15 19:59N 32°02' W 080°54'0 0.0
2018-Apr-15 19:31N 32°02' W 080°54'0 0.0
2018-Apr-15 19:01N 32°02' W 080°54'0 0.0
2018-Apr-15 18:30N 32°02' W 080°54'0 0.0
2018-Apr-15 18:00N 32°02' W 080°54'0 0.0
2018-Apr-15 17:30N 32°02' W 080°54'0 0.0
2018-Apr-15 17:00N 32°02' W 080°54'0 0.0
2018-Apr-15 16:30N 32°02' W 080°54'0 0.0
2018-Apr-15 15:59N 32°02' W 080°54'0 0.0
2018-Apr-15 15:31N 32°02' W 080°54'0 0.0
2018-Apr-15 15:00N 32°02' W 080°54'0 0.0
2018-Apr-15 14:30N 32°02' W 080°54'0 0.0
2018-Apr-15 14:01N 32°02' W 080°54'5 9.5
2018-Apr-15 13:30N 32°01' W 080°49'814.4
2018-Apr-15 12:57N 31°57' W 080°41'715.9
2018-Apr-15 12:30N 32°01' W 080°48'510.5
2018-Apr-15 11:59N 32°02' W 080°54'0 0.0
2018-Apr-15 11:30N 32°02' W 080°54'9 7.6
2018-Apr-15 10:19N 31°58' W 080°44'721.9
2018-Apr-15 10:00N 32°02' W 080°51'3 5.8
2018-Apr-15 09:30N 32°02' W 080°54'0 0.0
2018-Apr-15 09:01N 32°02' W 080°54'0 0.0
2018-Apr-15 08:30N 32°02' W 080°54'4 8.4
2018-Apr-15 08:00N 32°02' W 080°49'6 7.3
2018-Apr-15 07:12N 31°59' W 080°43'522.6
2018-Apr-15 06:59N 32°01' W 080°48'510.6
2018-Apr-15 06:30N 32°02' W 080°54'1 2.4
2018-Apr-15 06:01N 32°02' W 080°53'917.4
2018-Apr-15 05:30N 31°58' W 080°43'714.0
2018-Apr-15 05:00N 32°02' W 080°50'4 7.4
2018-Apr-15 04:30N 32°02' W 080°54'0 0.0
2018-Apr-15 04:00N 32°02' W 080°54'0 0.0
2018-Apr-15 03:30N 32°02' W 080°54'0 0.0
2018-Apr-15 03:00N 32°02' W 080°54'0 0.0
2018-Apr-15 02:30N 32°02' W 080°54'0 0.0
2018-Apr-15 02:00N 32°02' W 080°54'0 0.0
2018-Apr-15 01:30N 32°02' W 080°54'612.0
2018-Apr-15 01:01N 32°00' W 080°48'3 3.6
2018-Apr-15 00:12N 31°59' W 080°45'1 2.8
2018-Apr-15 00:00N 31°59' W 080°45'3 5.3
2018-Apr-14 23:30N 31°58' W 080°42'2 4.4
2018-Apr-14 23:00N 31°59' W 080°45'612.3
2018-Apr-14 22:31N 32°02' W 080°50'3 6.8
2018-Apr-14 22:01N 32°02' W 080°54'917.7
2018-Apr-14 21:30N 31°58' W 080°44'612.3
2018-Apr-14 21:00N 32°02' W 080°50'3 6.9
2018-Apr-14 20:30N 32°02' W 080°54'0 0.0
2018-Apr-14 20:00N 32°02' W 080°54'0 0.0
2018-Apr-14 19:30N 32°02' W 080°54'5 9.6
2018-Apr-14 19:01N 32°01' W 080°49'2 4.6
2018-Apr-14 18:30N 31°59' W 080°47'713.4
2018-Apr-14 18:00N 32°02' W 080°54'0 0.4
2018-Apr-14 17:30N 32°02' W 080°54'0 0.0
2018-Apr-14 17:00N 32°02' W 080°54'0 0.3
2018-Apr-14 16:30N 32°02' W 080°54'1212.9
2018-Apr-14 15:36N 31°57' W 080°42'216.8
2018-Apr-14 15:29N 31°58' W 080°44'1019.8
2018-Apr-14 15:00N 32°02' W 080°54'0 0.0
2018-Apr-14 14:30N 32°02' W 080°54'0 0.0
2018-Apr-14 14:00N 32°02' W 080°54'0 0.0
2018-Apr-14 13:30N 32°02' W 080°54'0 0.0
2018-Apr-14 13:00N 32°02' W 080°54'612.4
2018-Apr-14 12:31N 31°60' W 080°47'2 4.6
2018-Apr-14 12:00N 31°59' W 080°45'1 1.3
2018-Apr-14 11:27N 31°59' W 080°44'2 4.7
2018-Apr-14 11:00N 31°58' W 080°42'2 4.8
2018-Apr-14 10:30N 31°59' W 080°44'0 0.6
2018-Apr-14 10:00N 31°59' W 080°44'4 5.5
2018-Apr-14 09:20N 31°57' W 080°40'3 8.4
2018-Apr-14 09:01N 31°58' W 080°43'1020.4
2018-Apr-14 08:30N 32°02' W 080°54'1323.3
2018-Apr-14 07:58N 31°56' W 080°41'919.5
2018-Apr-14 07:30N 32°02' W 080°50'3 6.4
2018-Apr-14 07:00N 31°60' W 080°47'713.2
2018-Apr-14 06:30N 31°56' W 080°40'1 1.3
2018-Apr-14 05:58N 31°57' W 080°40'817.5
2018-Apr-14 05:30N 32°01' W 080°48'5 9.9
2018-Apr-14 05:00N 32°02' W 080°54'0 0.0
2018-Apr-14 04:27N 32°02' W 080°54'0 0.0
2018-Apr-14 04:00N 32°02' W 080°54'0 0.0
2018-Apr-14 03:30N 32°02' W 080°54'0 0.0
2018-Apr-14 03:00N 32°02' W 080°54'0 0.0
2018-Apr-14 02:30N 32°02' W 080°54'1017.3
2018-Apr-14 01:55N 31°58' W 080°43'613.8
2018-Apr-14 01:30N 32°02' W 080°49'5 9.4
2018-Apr-14 01:01N 32°02' W 080°54'0 0.0
2018-Apr-14 00:28N 32°02' W 080°54'0 0.0
2018-Apr-14 00:01N 32°02' W 080°54'0 0.0
2018-Apr-13 23:31N 32°02' W 080°54'0 0.0
2018-Apr-13 23:01N 32°02' W 080°54'0 0.0
2018-Apr-13 22:31N 32°02' W 080°54'1218.3
2018-Apr-13 21:51N 31°59' W 080°41'618.4
2018-Apr-13 21:31N 32°00' W 080°48'2 4.9
2018-Apr-13 21:00N 32°02' W 080°50'811.4
2018-Apr-13 20:18N 31°57' W 080°42'1 1.1
2018-Apr-13 19:11N 31°58' W 080°43'1 4.4
2018-Apr-13 19:00N 31°58' W 080°44'2 4.5
2018-Apr-13 18:30N 31°59' W 080°46'5 8.7
2018-Apr-13 17:58N 31°57' W 080°41'1 1.6
2018-Apr-13 17:12N 31°57' W 080°40'316.1
2018-Apr-13 17:00N 31°58' W 080°44'612.5
2018-Apr-13 16:31N 32°02' W 080°49'915.5
2018-Apr-13 15:55N 31°57' W 080°40'1 2.1
2018-Apr-13 15:30N 31°56' W 080°40'2 4.4
2018-Apr-13 14:58N 31°57' W 080°42'611.8
2018-Apr-13 14:30N 32°00' W 080°48'611.6
2018-Apr-13 14:00N 32°02' W 080°54'0 0.0
2018-Apr-13 13:30N 32°02' W 080°54'0 0.0
2018-Apr-13 13:00N 32°02' W 080°54'0 0.0
2018-Apr-13 12:30N 32°02' W 080°54'0 0.0
2018-Apr-13 11:59N 32°02' W 080°54'0 0.0
2018-Apr-13 11:29N 32°02' W 080°54'1019.8
2018-Apr-13 10:58N 31°58' W 080°43'2 2.1
2018-Apr-13 10:10N 31°58' W 080°41'422.9
2018-Apr-13 10:00N 31°59' W 080°45'815.0
2018-Apr-13 09:31N 32°02' W 080°53'816.6
2018-Apr-13 09:00N 31°58' W 080°44'813.9
2018-Apr-13 08:27N 32°02' W 080°52'2 3.9
2018-Apr-13 08:00N 32°02' W 080°54'612.1
2018-Apr-13 07:31N 32°00' W 080°48'0 1.0
2018-Apr-13 07:01N 32°01' W 080°48'5 9.3
2018-Apr-13 06:31N 32°02' W 080°53'712.5
2018-Apr-13 05:58N 31°59' W 080°46'1 1.6
2018-Apr-13 05:30N 31°59' W 080°46'0 0.4
2018-Apr-13 05:00N 31°59' W 080°46'2 3.6
2018-Apr-13 04:30N 31°58' W 080°44'2 5.1
2018-Apr-13 04:01N 31°59' W 080°46'714.1
2018-Apr-13 03:30N 32°02' W 080°54'0 0.0
2018-Apr-13 02:57N 32°02' W 080°54'614.7
2018-Apr-13 02:31N 31°60' W 080°47'5 9.3
2018-Apr-13 02:01N 32°02' W 080°52'612.5
2018-Apr-13 01:30N 31°59' W 080°45'5 9.9
2018-Apr-13 01:00N 32°02' W 080°50'4 7.3
2018-Apr-13 00:30N 32°02' W 080°54'0 0.0
2018-Apr-12 23:58N 32°02' W 080°54'0 0.0
2018-Apr-12 23:30N 32°02' W 080°54'0 0.0
2018-Apr-12 23:00N 32°02' W 080°54'916.4
2018-Apr-12 22:26N 31°58' W 080°44'511.1
2018-Apr-12 22:00N 32°01' W 080°48'5 9.8
2018-Apr-12 21:30N 32°02' W 080°54'0 0.0
2018-Apr-12 21:00N 32°02' W 080°54'0 0.0
2018-Apr-12 20:30N 32°02' W 080°54'0 0.0
2018-Apr-12 19:58N 32°02' W 080°54'2 4.3
2018-Apr-12 19:31N 32°02' W 080°52'1120.3
2018-Apr-12 18:58N 31°58' W 080°40'1022.2
2018-Apr-12 18:31N 32°02' W 080°51'1215.3
2018-Apr-12 17:42N 31°56' W 080°38'2 9.1
2018-Apr-12 17:27N 31°57' W 080°41'819.1
2018-Apr-12 17:01N 32°01' W 080°49'3 5.2
2018-Apr-12 16:30N 32°02' W 080°52'713.9
2018-Apr-12 16:00N 31°59' W 080°45'612.5
2018-Apr-12 15:30N 32°02' W 080°50'3 5.7
2018-Apr-12 14:57N 32°02' W 080°54'1017.0
2018-Apr-12 14:20N 31°58' W 080°43'1 2.4
2018-Apr-12 13:55N 31°58' W 080°44'3 8.6
2018-Apr-12 13:30N 31°57' W 080°40'917.6
2018-Apr-12 13:01N 32°02' W 080°49'4 8.8
2018-Apr-12 12:31N 32°02' W 080°54'0 0.0
2018-Apr-12 11:53N 32°02' W 080°54'0 0.0
2018-Apr-12 11:30N 32°02' W 080°54'5 9.6
2018-Apr-12 11:01N 32°01' W 080°49'4 7.1
2018-Apr-12 10:30N 31°59' W 080°45'612.5
2018-Apr-12 10:00N 32°02' W 080°52'2 4.4
2018-Apr-12 09:30N 32°02' W 080°54'1121.1
2018-Apr-12 09:00N 31°58' W 080°43'3 6.7
2018-Apr-12 08:30N 31°59' W 080°46'0 0.4
2018-Apr-12 08:00N 31°59' W 080°47'1 1.7
2018-Apr-12 07:28N 31°59' W 080°45'511.9
2018-Apr-12 07:00N 31°57' W 080°40'713.7
2018-Apr-12 06:31N 31°60' W 080°47'7 9.2
2018-Apr-12 05:46N 32°02' W 080°54'0 0.0
2018-Apr-12 05:29N 32°02' W 080°54'0 0.0
2018-Apr-12 05:00N 32°02' W 080°54'0 0.0
2018-Apr-12 04:30N 32°02' W 080°54'4 7.3
2018-Apr-12 03:56N 32°02' W 080°49'1020.3
2018-Apr-12 03:28N 31°57' W 080°39'1123.5
2018-Apr-12 03:00N 32°02' W 080°50'3 6.3
2018-Apr-12 02:30N 32°02' W 080°54'0 0.0
2018-Apr-12 02:00N 32°02' W 080°54'4 7.8
2018-Apr-12 01:28N 32°02' W 080°49'4 7.2
2018-Apr-12 00:57N 31°59' W 080°46'512.1
2018-Apr-12 00:30N 32°02' W 080°51'2 4.5
2018-Apr-11 23:59N 32°02' W 080°54'0 0.0
2018-Apr-11 23:30N 32°02' W 080°54'0 0.0
2018-Apr-11 22:59N 32°02' W 080°54'0 0.0
2018-Apr-11 22:30N 32°02' W 080°54'0 0.0
2018-Apr-11 22:00N 32°02' W 080°54'0 0.0
2018-Apr-11 21:30N 32°02' W 080°54'0 0.0
2018-Apr-11 21:00N 32°02' W 080°54'4 7.8
2018-Apr-11 20:31N 32°02' W 080°50'4 8.0
2018-Apr-11 20:00N 31°59' W 080°46'713.8
2018-Apr-11 19:30N 32°02' W 080°54'1 1.0
2018-Apr-11 19:01N 32°02' W 080°54'0 0.0
2018-Apr-11 18:21N 32°02' W 080°54'0 0.0
2018-Apr-11 18:00N 32°02' W 080°54'0 0.0
2018-Apr-11 17:30N 32°02' W 080°54'0 0.0
2018-Apr-11 17:01N 32°02' W 080°54'0 0.0
2018-Apr-11 16:30N 32°02' W 080°54'0 0.0
2018-Apr-11 16:01N 32°02' W 080°54'0 0.0
2018-Apr-11 15:30N 32°02' W 080°54'0 0.0
2018-Apr-11 15:00N 32°02' W 080°54'0 0.0
2018-Apr-11 14:22N 32°02' W 080°54'0 0.0
2018-Apr-11 14:00N 32°02' W 080°54'0 0.0
2018-Apr-11 13:31N 32°02' W 080°54'0 0.0
2018-Apr-11 13:01N 32°02' W 080°54'0 0.0
2018-Apr-11 12:31N 32°02' W 080°54'0 0.0
2018-Apr-11 12:00N 32°02' W 080°54'0 0.0
2018-Apr-11 11:30N 32°02' W 080°54'713.1
2018-Apr-11 11:01N 32°04' W 081°02'  
Track history (hours):
 
Tides and Currents Weather Stations Pressure Air Temp Water Temp Dewpoint Dewpoint Depression Visibility Wind Speed Wind Dir Waves Ship Positions

Savannah

Owner: SAVANNAH BAR PILOTS INC, SAVANNAH, GA. More information available from US FCC via Universal Licensing System and Coast Guard Vessel Documentation Center.

Last reported at 2018-Apr-20 13:58 UTC. Time now 2018-Apr-20 14:16 UTC.
Position N 32°02' W 080°54'.

Length 18 m; draft 1.5 m.

Type: Pilot. MMSI: 367061140.

Date/timePositionNaut miles runAvg speedWind from/ knotsBaromVisibWave heightAir tempDewpointWater temp
2018-Apr-20 13:58N 32°02' W 080°54'0 0.0
2018-Apr-20 13:30N 32°02' W 080°54'0 0.0
2018-Apr-20 13:00N 32°02' W 080°54'0 0.0
2018-Apr-20 12:28N 32°02' W 080°54'0 0.0
2018-Apr-20 12:00N 32°02' W 080°54'0 0.0
2018-Apr-20 11:30N 32°02' W 080°54'611.8
2018-Apr-20 11:00N 32°00' W 080°48'5 9.5
2018-Apr-20 10:29N 31°58' W 080°43'715.4
2018-Apr-20 10:00N 32°02' W 080°50'3 6.2
2018-Apr-20 09:30N 31°60' W 080°47'1 1.5
2018-Apr-20 08:54N 31°59' W 080°46'717.6
2018-Apr-20 08:30N 32°02' W 080°54'1 1.9
2018-Apr-20 08:00N 32°02' W 080°53'10 8.3
2018-Apr-20 06:48N 31°57' W 080°43'1 3.4
2018-Apr-20 06:30N 31°57' W 080°42'612.7
2018-Apr-20 06:01N 32°00' W 080°48'4 7.9
2018-Apr-20 05:30N 32°02' W 080°52'1119.1
2018-Apr-20 04:55N 31°56' W 080°40'0 0.2
2018-Apr-20 04:30N 31°56' W 080°40'2 3.8
2018-Apr-20 04:01N 31°58' W 080°42'1 1.6
2018-Apr-20 03:22N 31°57' W 080°41'1 2.0
2018-Apr-20 02:40N 31°58' W 080°42'211.6
2018-Apr-20 02:30N 31°58' W 080°44'917.1
2018-Apr-20 02:00N 32°02' W 080°54'916.2
2018-Apr-20 01:25N 31°58' W 080°44'2 5.0
2018-Apr-20 01:00N 31°59' W 080°46'1 1.6
2018-Apr-20 00:30N 31°59' W 080°45'5 8.2
2018-Apr-19 23:55N 31°56' W 080°40'614.4
2018-Apr-19 23:30N 31°59' W 080°46'714.9
2018-Apr-19 23:00N 32°02' W 080°54'0 0.0
2018-Apr-19 22:30N 32°02' W 080°54'0 0.0
2018-Apr-19 22:00N 32°02' W 080°54'0 0.0
2018-Apr-19 21:30N 32°02' W 080°54'0 0.0
2018-Apr-19 20:57N 32°02' W 080°54'0 0.0
2018-Apr-19 20:29N 32°02' W 080°54'0 0.0
2018-Apr-19 20:00N 32°02' W 080°54'0 0.0
2018-Apr-19 19:30N 32°02' W 080°54'918.7
2018-Apr-19 19:00N 31°58' W 080°44'1 2.6
2018-Apr-19 18:30N 31°59' W 080°45'0 0.5
2018-Apr-19 18:00N 31°59' W 080°45'4 7.3
2018-Apr-19 17:27N 31°57' W 080°41'3 6.9
2018-Apr-19 16:58N 31°58' W 080°44'2 3.7
2018-Apr-19 16:28N 32°00' W 080°45'2 4.6
2018-Apr-19 16:00N 31°58' W 080°46'2 4.7
2018-Apr-19 15:30N 32°00' W 080°45'1 2.1
2018-Apr-19 15:00N 31°59' W 080°44'2 3.9
2018-Apr-19 14:30N 31°59' W 080°47'612.9
2018-Apr-19 14:01N 32°02' W 080°53'1 1.2
2018-Apr-19 13:30N 32°02' W 080°54'0 0.0
2018-Apr-19 13:00N 32°02' W 080°54'3 5.1
2018-Apr-19 12:31N 32°02' W 080°51'910.6
2018-Apr-19 11:39N 31°58' W 080°42'319.6
2018-Apr-19 11:30N 31°59' W 080°45'714.2
2018-Apr-19 11:00N 32°02' W 080°52'1 2.9
2018-Apr-19 10:30N 32°02' W 080°54'0 0.0
2018-Apr-19 10:00N 32°02' W 080°54'0 0.0
2018-Apr-19 09:30N 32°02' W 080°54'0 0.0
2018-Apr-19 09:00N 32°02' W 080°54'0 0.0
2018-Apr-19 08:30N 32°02' W 080°54'2 4.2
2018-Apr-19 08:00N 32°02' W 080°52'911.1
2018-Apr-19 07:13N 31°58' W 080°43'417.3
2018-Apr-19 07:00N 31°60' W 080°47'613.4
2018-Apr-19 06:31N 32°02' W 080°54'0 0.0
2018-Apr-19 06:01N 32°02' W 080°54'0 0.0
2018-Apr-19 05:31N 32°02' W 080°54'0 0.0
2018-Apr-19 05:00N 32°02' W 080°54'0 0.0
2018-Apr-19 04:30N 32°02' W 080°54'0 0.0
2018-Apr-19 04:00N 32°02' W 080°54'0 0.0
2018-Apr-19 03:30N 32°02' W 080°54'0 0.0
2018-Apr-19 03:01N 32°02' W 080°54'714.3
2018-Apr-19 02:30N 31°59' W 080°46'2 3.6
2018-Apr-19 02:00N 32°01' W 080°48'611.1
2018-Apr-19 01:30N 32°02' W 080°54'0 0.0
2018-Apr-19 01:00N 32°02' W 080°54'0 0.0
2018-Apr-19 00:29N 32°02' W 080°54'0 0.0
2018-Apr-19 00:00N 32°02' W 080°54'0 0.0
2018-Apr-18 23:29N 32°02' W 080°54'0 0.0
2018-Apr-18 23:00N 32°02' W 080°54'0 0.0
2018-Apr-18 22:29N 32°02' W 080°54'0 0.0
2018-Apr-18 22:00N 32°02' W 080°54'0 0.0
2018-Apr-18 21:29N 32°02' W 080°54'0 0.0
2018-Apr-18 21:00N 32°02' W 080°54'0 0.0
2018-Apr-18 20:30N 32°02' W 080°54'0 0.0
2018-Apr-18 20:00N 32°02' W 080°54'0 0.0
2018-Apr-18 19:30N 32°02' W 080°54'0 0.0
2018-Apr-18 19:00N 32°02' W 080°54'0 0.0
2018-Apr-18 18:29N 32°02' W 080°54'0 0.0
2018-Apr-18 18:00N 32°02' W 080°54'0 0.0
2018-Apr-18 17:30N 32°02' W 080°54'0 0.0
2018-Apr-18 17:00N 32°02' W 080°54'0 0.0
2018-Apr-18 16:30N 32°02' W 080°54'0 0.0
2018-Apr-18 16:00N 32°02' W 080°54'0 0.0
2018-Apr-18 15:30N 32°02' W 080°54'0 0.0
2018-Apr-18 15:00N 32°02' W 080°54'0 0.0
2018-Apr-18 14:30N 32°02' W 080°54'0 0.0
2018-Apr-18 14:00N 32°02' W 080°54'0 0.0
2018-Apr-18 13:30N 32°02' W 080°54'0 0.0
2018-Apr-18 13:00N 32°02' W 080°54'510.5
2018-Apr-18 12:30N 32°01' W 080°48'712.8
2018-Apr-18 11:59N 31°58' W 080°41'713.8
2018-Apr-18 11:30N 32°01' W 080°48'510.0
2018-Apr-18 11:00N 32°02' W 080°54'0 0.0
2018-Apr-18 10:31N 32°02' W 080°54'0 0.0
2018-Apr-18 10:00N 32°02' W 080°54'0 0.0
2018-Apr-18 09:30N 32°02' W 080°54'1220.2
2018-Apr-18 08:55N 31°57' W 080°41'717.5
2018-Apr-18 08:31N 32°01' W 080°48'510.2
2018-Apr-18 08:00N 32°02' W 080°54'2 4.8
2018-Apr-18 07:30N 32°02' W 080°51'1121.4
2018-Apr-18 07:00N 31°57' W 080°40'1 1.0
2018-Apr-18 06:30N 31°57' W 080°40'1 1.2
2018-Apr-18 06:00N 31°57' W 080°40'2 3.6
2018-Apr-18 05:28N 31°58' W 080°43'3 4.7
2018-Apr-18 04:52N 31°57' W 080°40'718.0
2018-Apr-18 04:30N 31°59' W 080°47'0 1.0
2018-Apr-18 04:00N 31°59' W 080°46'611.2
2018-Apr-18 03:30N 32°02' W 080°52'2 4.2
2018-Apr-18 03:00N 32°02' W 080°54'0 0.0
2018-Apr-18 02:28N 32°02' W 080°54'0 0.0
2018-Apr-18 01:58N 32°02' W 080°54'0 0.0
2018-Apr-18 01:30N 32°02' W 080°54'0 0.0
2018-Apr-18 00:56N 32°02' W 080°54'0 0.0
2018-Apr-18 00:29N 32°02' W 080°54'0 0.0
2018-Apr-17 23:56N 32°02' W 080°54'0 0.0
2018-Apr-17 23:30N 32°02' W 080°54'0 0.0
2018-Apr-17 23:00N 32°02' W 080°54'0 0.0
2018-Apr-17 22:30N 32°02' W 080°54'0 0.0
2018-Apr-17 22:00N 32°02' W 080°54'0 0.0
2018-Apr-17 21:30N 32°02' W 080°54'0 0.0
2018-Apr-17 21:00N 32°02' W 080°54'0 0.0
2018-Apr-17 20:30N 32°02' W 080°54'0 0.0
2018-Apr-17 20:00N 32°02' W 080°54'0 0.0
2018-Apr-17 19:30N 32°02' W 080°54'0 0.0
2018-Apr-17 18:57N 32°02' W 080°54'0 0.0
2018-Apr-17 18:30N 32°02' W 080°54'0 0.0
2018-Apr-17 17:59N 32°02' W 080°54'0 0.0
2018-Apr-17 17:30N 32°02' W 080°54'0 0.0
2018-Apr-17 17:00N 32°02' W 080°54'0 0.0
2018-Apr-17 16:30N 32°02' W 080°54'0 0.0
2018-Apr-17 16:00N 32°02' W 080°54'0 0.0
2018-Apr-17 15:30N 32°02' W 080°54'0 0.0
2018-Apr-17 15:00N 32°02' W 080°54'0 0.0
2018-Apr-17 14:26N 32°02' W 080°54'0 0.0
2018-Apr-17 14:00N 32°02' W 080°54'0 0.0
2018-Apr-17 13:29N 32°02' W 080°54'0 0.0
2018-Apr-17 13:00N 32°02' W 080°54'510.3
2018-Apr-17 12:31N 32°01' W 080°48'8 7.6
2018-Apr-17 11:28N 31°57' W 080°40'4 8.6
2018-Apr-17 10:57N 31°58' W 080°45'2 4.6
2018-Apr-17 10:30N 31°59' W 080°47'4 6.1
2018-Apr-17 09:47N 31°58' W 080°43'310.3
2018-Apr-17 09:27N 31°59' W 080°46'612.6
2018-Apr-17 09:00N 32°02' W 080°52'2 4.0
2018-Apr-17 08:30N 32°02' W 080°54'0 0.0
2018-Apr-17 08:00N 32°02' W 080°54'0 0.0
2018-Apr-17 07:27N 32°02' W 080°54'0 0.0
2018-Apr-17 07:00N 32°02' W 080°54'0 0.0
2018-Apr-17 06:30N 32°02' W 080°54'0 0.0
2018-Apr-17 05:58N 32°02' W 080°54'0 0.0
2018-Apr-17 05:28N 32°02' W 080°54'0 0.0
2018-Apr-17 05:00N 32°02' W 080°54'0 0.0
2018-Apr-17 04:30N 32°02' W 080°54'0 0.0
2018-Apr-17 03:57N 32°02' W 080°54'0 0.0
2018-Apr-17 03:30N 32°02' W 080°54'0 0.0
2018-Apr-17 03:00N 32°02' W 080°54'0 0.0
2018-Apr-17 02:30N 32°02' W 080°54'0 0.0
2018-Apr-17 02:00N 32°02' W 080°54'0 0.0
2018-Apr-17 01:30N 32°02' W 080°54'0 0.0
2018-Apr-17 00:59N 32°02' W 080°54'0 0.0
2018-Apr-17 00:30N 32°02' W 080°54'0 0.0
2018-Apr-17 00:00N 32°02' W 080°54'0 0.0
2018-Apr-16 23:30N 32°02' W 080°54'0 0.0
2018-Apr-16 23:00N 32°02' W 080°54'1 1.7
2018-Apr-16 22:31N 32°02' W 080°53'1221.9
2018-Apr-16 21:58N 31°58' W 080°40'4 9.0
2018-Apr-16 21:30N 31°59' W 080°45'917.1
2018-Apr-16 21:00N 32°02' W 080°54'0 0.0
2018-Apr-16 20:30N 32°02' W 080°54'0 0.0
2018-Apr-16 20:00N 32°02' W 080°54'0 0.0
2018-Apr-16 19:29N 32°02' W 080°54'0 0.0
2018-Apr-16 19:00N 32°02' W 080°54'0 0.0
2018-Apr-16 18:30N 32°02' W 080°54'5 9.3
2018-Apr-16 17:59N 32°01' W 080°49'5 7.8
2018-Apr-16 17:20N 31°58' W 080°44'514.8
2018-Apr-16 17:01N 32°01' W 080°48'5 8.8
2018-Apr-16 16:30N 31°58' W 080°44'3 7.0
2018-Apr-16 16:00N 31°60' W 080°47'611.2
2018-Apr-16 15:31N 32°02' W 080°53'916.3
2018-Apr-16 14:59N 31°58' W 080°44'1 1.0
2018-Apr-16 14:23N 31°58' W 080°44'513.5
2018-Apr-16 14:00N 32°01' W 080°48'5 9.7
2018-Apr-16 13:30N 32°02' W 080°54'0 0.0
2018-Apr-16 12:55N 32°02' W 080°54'0 0.0
2018-Apr-16 12:30N 32°02' W 080°54'1315.2
2018-Apr-16 11:40N 31°57' W 080°41'423.1
2018-Apr-16 11:30N 31°59' W 080°45'917.5
2018-Apr-16 11:00N 32°02' W 080°54'1 2.8
2018-Apr-16 10:31N 32°02' W 080°52'1118.8
2018-Apr-16 09:55N 31°58' W 080°41'612.8
2018-Apr-16 09:29N 31°60' W 080°47'511.2
2018-Apr-16 09:00N 32°02' W 080°52'1 3.0
2018-Apr-16 08:30N 32°02' W 080°54'0 0.0
2018-Apr-16 08:00N 32°02' W 080°54'0 0.0
2018-Apr-16 07:30N 32°02' W 080°54'611.6
2018-Apr-16 07:01N 32°00' W 080°48'5 5.2
2018-Apr-16 06:03N 31°57' W 080°43'121.9
2018-Apr-16 06:00N 31°58' W 080°44'1019.6
2018-Apr-16 05:30N 32°02' W 080°54'0 0.0
2018-Apr-16 04:59N 32°02' W 080°54'0 0.0
2018-Apr-16 04:30N 32°02' W 080°54'0 0.0
2018-Apr-16 04:00N 32°02' W 080°54'0 0.0
2018-Apr-16 03:30N 32°02' W 080°54'0 0.0
2018-Apr-16 03:00N 32°02' W 080°54'0 0.0
2018-Apr-16 02:30N 32°02' W 080°54'0 0.0
2018-Apr-16 01:58N 32°02' W 080°54'4 8.9
2018-Apr-16 01:30N 32°02' W 080°49'4 8.3
2018-Apr-16 00:59N 31°59' W 080°46'713.6
2018-Apr-16 00:30N 32°02' W 080°52'9 5.1
2018-Apr-15 22:50N 31°58' W 080°44'514.4
2018-Apr-15 22:29N 32°01' W 080°48'510.6
2018-Apr-15 22:00N 32°02' W 080°54'0 0.0
2018-Apr-15 21:29N 32°02' W 080°54'0 0.0
2018-Apr-15 21:01N 32°02' W 080°54'0 0.0
2018-Apr-15 20:31N 32°02' W 080°54'0 0.0
2018-Apr-15 19:59N 32°02' W 080°54'0 0.0
2018-Apr-15 19:31N 32°02' W 080°54'0 0.0
2018-Apr-15 19:01N 32°02' W 080°54'0 0.0
2018-Apr-15 18:30N 32°02' W 080°54'0 0.0
2018-Apr-15 18:00N 32°02' W 080°54'0 0.0
2018-Apr-15 17:30N 32°02' W 080°54'0 0.0
2018-Apr-15 17:00N 32°02' W 080°54'0 0.0
2018-Apr-15 16:30N 32°02' W 080°54'0 0.0
2018-Apr-15 15:59N 32°02' W 080°54'0 0.0
2018-Apr-15 15:31N 32°02' W 080°54'0 0.0
2018-Apr-15 15:00N 32°02' W 080°54'0 0.0
2018-Apr-15 14:30N 32°02' W 080°54'0 0.0
2018-Apr-15 14:01N 32°02' W 080°54'5 9.5
2018-Apr-15 13:30N 32°01' W 080°49'814.4
2018-Apr-15 12:57N 31°57' W 080°41'715.9
2018-Apr-15 12:30N 32°01' W 080°48'510.5
2018-Apr-15 11:59N 32°02' W 080°54'0 0.0
2018-Apr-15 11:30N 32°02' W 080°54'9 7.6
2018-Apr-15 10:19N 31°58' W 080°44'721.9
2018-Apr-15 10:00N 32°02' W 080°51'3 5.8
2018-Apr-15 09:30N 32°02' W 080°54'0 0.0
2018-Apr-15 09:01N 32°02' W 080°54'0 0.0
2018-Apr-15 08:30N 32°02' W 080°54'4 8.4
2018-Apr-15 08:00N 32°02' W 080°49'6 7.3
2018-Apr-15 07:12N 31°59' W 080°43'522.6
2018-Apr-15 06:59N 32°01' W 080°48'510.6
2018-Apr-15 06:30N 32°02' W 080°54'1 2.4
2018-Apr-15 06:01N 32°02' W 080°53'917.4
2018-Apr-15 05:30N 31°58' W 080°43'714.0
2018-Apr-15 05:00N 32°02' W 080°50'4 7.4
2018-Apr-15 04:30N 32°02' W 080°54'0 0.0
2018-Apr-15 04:00N 32°02' W 080°54'0 0.0
2018-Apr-15 03:30N 32°02' W 080°54'0 0.0
2018-Apr-15 03:00N 32°02' W 080°54'0 0.0
2018-Apr-15 02:30N 32°02' W 080°54'0 0.0
2018-Apr-15 02:00N 32°02' W 080°54'0 0.0
2018-Apr-15 01:30N 32°02' W 080°54'612.0
2018-Apr-15 01:01N 32°00' W 080°48'3 3.6
2018-Apr-15 00:12N 31°59' W 080°45'1 2.8
2018-Apr-15 00:00N 31°59' W 080°45'3 5.3
2018-Apr-14 23:30N 31°58' W 080°42'2 4.4
2018-Apr-14 23:00N 31°59' W 080°45'612.3
2018-Apr-14 22:31N 32°02' W 080°50'3 6.8
2018-Apr-14 22:01N 32°02' W 080°54'917.7
2018-Apr-14 21:30N 31°58' W 080°44'612.3
2018-Apr-14 21:00N 32°02' W 080°50'3 6.9
2018-Apr-14 20:30N 32°02' W 080°54'0 0.0
2018-Apr-14 20:00N 32°02' W 080°54'0 0.0
2018-Apr-14 19:30N 32°02' W 080°54'5 9.6
2018-Apr-14 19:01N 32°01' W 080°49'2 4.6
2018-Apr-14 18:30N 31°59' W 080°47'713.4
2018-Apr-14 18:00N 32°02' W 080°54'0 0.4
2018-Apr-14 17:30N 32°02' W 080°54'0 0.0
2018-Apr-14 17:00N 32°02' W 080°54'0 0.3
2018-Apr-14 16:30N 32°02' W 080°54'1212.9
2018-Apr-14 15:36N 31°57' W 080°42'216.8
2018-Apr-14 15:29N 31°58' W 080°44'1019.8
2018-Apr-14 15:00N 32°02' W 080°54'0 0.0
2018-Apr-14 14:30N 32°02' W 080°54'0 0.0
2018-Apr-14 14:00N 32°02' W 080°54'0 0.0
2018-Apr-14 13:30N 32°02' W 080°54'0 0.0
2018-Apr-14 13:00N 32°02' W 080°54'612.4
2018-Apr-14 12:31N 31°60' W 080°47'2 4.6
2018-Apr-14 12:00N 31°59' W 080°45'1 1.3
2018-Apr-14 11:27N 31°59' W 080°44'2 4.7
2018-Apr-14 11:00N 31°58' W 080°42'2 4.8
2018-Apr-14 10:30N 31°59' W 080°44'0 0.6
2018-Apr-14 10:00N 31°59' W 080°44'4 5.5
2018-Apr-14 09:20N 31°57' W 080°40'3 8.4
2018-Apr-14 09:01N 31°58' W 080°43'1020.4
2018-Apr-14 08:30N 32°02' W 080°54'1323.3
2018-Apr-14 07:58N 31°56' W 080°41'919.5
2018-Apr-14 07:30N 32°02' W 080°50'3 6.4
2018-Apr-14 07:00N 31°60' W 080°47'713.2
2018-Apr-14 06:30N 31°56' W 080°40'1 1.3
2018-Apr-14 05:58N 31°57' W 080°40'817.5
2018-Apr-14 05:30N 32°01' W 080°48'5 9.9
2018-Apr-14 05:00N 32°02' W 080°54'0 0.0
2018-Apr-14 04:27N 32°02' W 080°54'0 0.0
2018-Apr-14 04:00N 32°02' W 080°54'0 0.0
2018-Apr-14 03:30N 32°02' W 080°54'0 0.0
2018-Apr-14 03:00N 32°02' W 080°54'0 0.0
2018-Apr-14 02:30N 32°02' W 080°54'1017.3
2018-Apr-14 01:55N 31°58' W 080°43'613.8
2018-Apr-14 01:30N 32°02' W 080°49'5 9.4
2018-Apr-14 01:01N 32°02' W 080°54'0 0.0
2018-Apr-14 00:28N 32°02' W 080°54'0 0.0
2018-Apr-14 00:01N 32°02' W 080°54'0 0.0
2018-Apr-13 23:31N 32°02' W 080°54'0 0.0
2018-Apr-13 23:01N 32°02' W 080°54'0 0.0
2018-Apr-13 22:31N 32°02' W 080°54'1218.3
2018-Apr-13 21:51N 31°59' W 080°41'618.4
2018-Apr-13 21:31N 32°00' W 080°48'2 4.9
2018-Apr-13 21:00N 32°02' W 080°50'811.4
2018-Apr-13 20:18N 31°57' W 080°42'1 1.1
2018-Apr-13 19:11N 31°58' W 080°43'1 4.4
2018-Apr-13 19:00N 31°58' W 080°44'2 4.5
2018-Apr-13 18:30N 31°59' W 080°46'5 8.7
2018-Apr-13 17:58N 31°57' W 080°41'1 1.6
2018-Apr-13 17:12N 31°57' W 080°40'316.1
2018-Apr-13 17:00N 31°58' W 080°44'612.5
2018-Apr-13 16:31N 32°02' W 080°49'915.5
2018-Apr-13 15:55N 31°57' W 080°40'1 2.1
2018-Apr-13 15:30N 31°56' W 080°40'2 4.4
2018-Apr-13 14:58N 31°57' W 080°42'611.8
2018-Apr-13 14:30N 32°00' W 080°48'611.6
2018-Apr-13 14:00N 32°02' W 080°54'0 0.0
2018-Apr-13 13:30N 32°02' W 080°54'0 0.0
2018-Apr-13 13:00N 32°02' W 080°54'0 0.0
2018-Apr-13 12:30N 32°02' W 080°54'0 0.0
2018-Apr-13 11:59N 32°02' W 080°54'0 0.0
2018-Apr-13 11:29N 32°02' W 080°54'1019.8
2018-Apr-13 10:58N 31°58' W 080°43'2 2.1
2018-Apr-13 10:10N 31°58' W 080°41'422.9
2018-Apr-13 10:00N 31°59' W 080°45'815.0
2018-Apr-13 09:31N 32°02' W 080°53'816.6
2018-Apr-13 09:00N 31°58' W 080°44'813.9
2018-Apr-13 08:27N 32°02' W 080°52'2 3.9
2018-Apr-13 08:00N 32°02' W 080°54'612.1
2018-Apr-13 07:31N 32°00' W 080°48'0 1.0
2018-Apr-13 07:01N 32°01' W 080°48'5 9.3
2018-Apr-13 06:31N 32°02' W 080°53'712.5
2018-Apr-13 05:58N 31°59' W 080°46'1 1.6
2018-Apr-13 05:30N 31°59' W 080°46'0 0.4
2018-Apr-13 05:00N 31°59' W 080°46'2 3.6
2018-Apr-13 04:30N 31°58' W 080°44'2 5.1
2018-Apr-13 04:01N 31°59' W 080°46'714.1
2018-Apr-13 03:30N 32°02' W 080°54'0 0.0
2018-Apr-13 02:57N 32°02' W 080°54'614.7
2018-Apr-13 02:31N 31°60' W 080°47'5 9.3
2018-Apr-13 02:01N 32°02' W 080°52'612.5
2018-Apr-13 01:30N 31°59' W 080°45'5 9.9
2018-Apr-13 01:00N 32°02' W 080°50'4 7.3
2018-Apr-13 00:30N 32°02' W 080°54'0 0.0
2018-Apr-12 23:58N 32°02' W 080°54'0 0.0
2018-Apr-12 23:30N 32°02' W 080°54'0 0.0
2018-Apr-12 23:00N 32°02' W 080°54'916.4
2018-Apr-12 22:26N 31°58' W 080°44'511.1
2018-Apr-12 22:00N 32°01' W 080°48'5 9.8
2018-Apr-12 21:30N 32°02' W 080°54'0 0.0
2018-Apr-12 21:00N 32°02' W 080°54'0 0.0
2018-Apr-12 20:30N 32°02' W 080°54'0 0.0
2018-Apr-12 19:58N 32°02' W 080°54'2 4.3
2018-Apr-12 19:31N 32°02' W 080°52'1120.3
2018-Apr-12 18:58N 31°58' W 080°40'1022.2
2018-Apr-12 18:31N 32°02' W 080°51'1215.3
2018-Apr-12 17:42N 31°56' W 080°38'2 9.1
2018-Apr-12 17:27N 31°57' W 080°41'819.1
2018-Apr-12 17:01N 32°01' W 080°49'3 5.2
2018-Apr-12 16:30N 32°02' W 080°52'713.9
2018-Apr-12 16:00N 31°59' W 080°45'612.5
2018-Apr-12 15:30N 32°02' W 080°50'3 5.7
2018-Apr-12 14:57N 32°02' W 080°54'1017.0
2018-Apr-12 14:20N 31°58' W 080°43'1 2.4
2018-Apr-12 13:55N 31°58' W 080°44'3 8.6
2018-Apr-12 13:30N 31°57' W 080°40'917.6
2018-Apr-12 13:01N 32°02' W 080°49'4 8.8
2018-Apr-12 12:31N 32°02' W 080°54'0 0.0
2018-Apr-12 11:53N 32°02' W 080°54'0 0.0
2018-Apr-12 11:30N 32°02' W 080°54'5 9.6
2018-Apr-12 11:01N 32°01' W 080°49'4 7.1
2018-Apr-12 10:30N 31°59' W 080°45'612.5
2018-Apr-12 10:00N 32°02' W 080°52'2 4.4
2018-Apr-12 09:30N 32°02' W 080°54'1121.1
2018-Apr-12 09:00N 31°58' W 080°43'3 6.7
2018-Apr-12 08:30N 31°59' W 080°46'0 0.4
2018-Apr-12 08:00N 31°59' W 080°47'1 1.7
2018-Apr-12 07:28N 31°59' W 080°45'511.9
2018-Apr-12 07:00N 31°57' W 080°40'713.7
2018-Apr-12 06:31N 31°60' W 080°47'7 9.2
2018-Apr-12 05:46N 32°02' W 080°54'0 0.0
2018-Apr-12 05:29N 32°02' W 080°54'0 0.0
2018-Apr-12 05:00N 32°02' W 080°54'0 0.0
2018-Apr-12 04:30N 32°02' W 080°54'4 7.3
2018-Apr-12 03:56N 32°02' W 080°49'1020.3
2018-Apr-12 03:28N 31°57' W 080°39'1123.5
2018-Apr-12 03:00N 32°02' W 080°50'3 6.3
2018-Apr-12 02:30N 32°02' W 080°54'0 0.0
2018-Apr-12 02:00N 32°02' W 080°54'4 7.8
2018-Apr-12 01:28N 32°02' W 080°49'4 7.2
2018-Apr-12 00:57N 31°59' W 080°46'512.1
2018-Apr-12 00:30N 32°02' W 080°51'2 4.5
2018-Apr-11 23:59N 32°02' W 080°54'0 0.0
2018-Apr-11 23:30N 32°02' W 080°54'0 0.0
2018-Apr-11 22:59N 32°02' W 080°54'0 0.0
2018-Apr-11 22:30N 32°02' W 080°54'0 0.0
2018-Apr-11 22:00N 32°02' W 080°54'0 0.0
2018-Apr-11 21:30N 32°02' W 080°54'0 0.0
2018-Apr-11 21:00N 32°02' W 080°54'4 7.8
2018-Apr-11 20:31N 32°02' W 080°50'4 8.0
2018-Apr-11 20:00N 31°59' W 080°46'713.8
2018-Apr-11 19:30N 32°02' W 080°54'1 1.0
2018-Apr-11 19:01N 32°02' W 080°54'0 0.0
2018-Apr-11 18:21N 32°02' W 080°54'0 0.0
2018-Apr-11 18:00N 32°02' W 080°54'0 0.0
2018-Apr-11 17:30N 32°02' W 080°54'0 0.0
2018-Apr-11 17:01N 32°02' W 080°54'0 0.0
2018-Apr-11 16:30N 32°02' W 080°54'0 0.0
2018-Apr-11 16:01N 32°02' W 080°54'0 0.0
2018-Apr-11 15:30N 32°02' W 080°54'0 0.0
2018-Apr-11 15:00N 32°02' W 080°54'0 0.0
2018-Apr-11 14:22N 32°02' W 080°54'0 0.0
2018-Apr-11 14:00N 32°02' W 080°54'0 0.0
2018-Apr-11 13:31N 32°02' W 080°54'0 0.0
2018-Apr-11 13:01N 32°02' W 080°54'0 0.0
2018-Apr-11 12:31N 32°02' W 080°54'0 0.0
2018-Apr-11 12:00N 32°02' W 080°54'0 0.0
2018-Apr-11 11:30N 32°02' W 080°54'713.1
2018-Apr-11 11:01N 32°04' W 081°02'  

Dump ship's entire track history